sensor_id;sensor_type;location;lat;lon;timestamp;P1;durP1;ratioP1;P2;durP2;ratioP2
25511;SDS011;13414;44.534;18.700;2024-01-25T00:01:30;337.08;;;198.73;;
25511;SDS011;13414;44.534;18.700;2024-01-25T00:03:57;291.42;;;169.00;;
25511;SDS011;13414;44.534;18.700;2024-01-25T00:06:26;271.70;;;157.48;;
25511;SDS011;13414;44.534;18.700;2024-01-25T00:08:54;315.88;;;177.25;;
25511;SDS011;13414;44.534;18.700;2024-01-25T00:11:21;294.45;;;168.48;;
25511;SDS011;13414;44.534;18.700;2024-01-25T00:13:49;289.58;;;167.73;;
25511;SDS011;13414;44.534;18.700;2024-01-25T00:16:16;268.30;;;149.98;;
25511;SDS011;13414;44.534;18.700;2024-01-25T00:18:44;260.75;;;147.40;;
25511;SDS011;13414;44.534;18.700;2024-01-25T00:21:11;250.32;;;140.10;;
25511;SDS011;13414;44.534;18.700;2024-01-25T00:23:40;245.73;;;136.23;;
25511;SDS011;13414;44.534;18.700;2024-01-25T00:26:07;228.05;;;130.05;;
25511;SDS011;13414;44.534;18.700;2024-01-25T00:28:35;227.48;;;126.03;;
25511;SDS011;13414;44.534;18.700;2024-01-25T00:31:02;235.18;;;125.47;;
25511;SDS011;13414;44.534;18.700;2024-01-25T00:33:30;252.32;;;130.88;;
25511;SDS011;13414;44.534;18.700;2024-01-25T00:35:58;244.52;;;130.27;;
25511;SDS011;13414;44.534;18.700;2024-01-25T00:38:26;277.38;;;144.23;;
25511;SDS011;13414;44.534;18.700;2024-01-25T00:40:55;292.60;;;148.23;;
25511;SDS011;13414;44.534;18.700;2024-01-25T00:43:23;285.50;;;146.63;;
25511;SDS011;13414;44.534;18.700;2024-01-25T00:45:51;269.15;;;141.27;;
25511;SDS011;13414;44.534;18.700;2024-01-25T00:48:19;251.98;;;131.57;;
25511;SDS011;13414;44.534;18.700;2024-01-25T00:50:47;246.73;;;129.70;;
25511;SDS011;13414;44.534;18.700;2024-01-25T00:53:15;258.83;;;136.90;;
25511;SDS011;13414;44.534;18.700;2024-01-25T00:55:43;249.27;;;129.20;;
25511;SDS011;13414;44.534;18.700;2024-01-25T00:58:12;236.48;;;127.90;;
25511;SDS011;13414;44.534;18.700;2024-01-25T01:00:40;242.27;;;125.97;;
25511;SDS011;13414;44.534;18.700;2024-01-25T01:03:08;240.65;;;129.57;;
25511;SDS011;13414;44.534;18.700;2024-01-25T01:05:36;236.38;;;127.28;;
25511;SDS011;13414;44.534;18.700;2024-01-25T01:08:05;223.23;;;122.82;;
25511;SDS011;13414;44.534;18.700;2024-01-25T01:10:33;225.90;;;121.18;;
25511;SDS011;13414;44.534;18.700;2024-01-25T01:13:00;230.32;;;121.63;;
25511;SDS011;13414;44.534;18.700;2024-01-25T01:15:29;206.95;;;112.53;;
25511;SDS011;13414;44.534;18.700;2024-01-25T01:17:56;188.43;;;104.22;;
25511;SDS011;13414;44.534;18.700;2024-01-25T01:20:24;186.00;;;101.22;;
25511;SDS011;13414;44.534;18.700;2024-01-25T01:22:51;171.15;;;94.50;;
25511;SDS011;13414;44.534;18.700;2024-01-25T01:25:19;175.75;;;93.85;;
25511;SDS011;13414;44.534;18.700;2024-01-25T01:27:46;198.35;;;108.80;;
25511;SDS011;13414;44.534;18.700;2024-01-25T01:30:14;229.52;;;118.97;;
25511;SDS011;13414;44.534;18.700;2024-01-25T01:32:43;223.93;;;120.57;;
25511;SDS011;13414;44.534;18.700;2024-01-25T01:35:10;208.30;;;113.22;;
25511;SDS011;13414;44.534;18.700;2024-01-25T01:37:37;213.25;;;115.55;;
25511;SDS011;13414;44.534;18.700;2024-01-25T01:40:05;214.68;;;117.30;;
25511;SDS011;13414;44.534;18.700;2024-01-25T01:42:33;214.68;;;116.53;;
25511;SDS011;13414;44.534;18.700;2024-01-25T01:45:01;206.55;;;112.70;;
25511;SDS011;13414;44.534;18.700;2024-01-25T01:47:28;189.82;;;102.75;;
25511;SDS011;13414;44.534;18.700;2024-01-25T01:49:57;198.60;;;108.75;;
25511;SDS011;13414;44.534;18.700;2024-01-25T01:52:25;211.10;;;116.80;;
25511;SDS011;13414;44.534;18.700;2024-01-25T01:54:52;199.32;;;114.53;;
25511;SDS011;13414;44.534;18.700;2024-01-25T01:57:20;194.35;;;112.50;;
25511;SDS011;13414;44.534;18.700;2024-01-25T01:59:47;201.35;;;119.15;;
25511;SDS011;13414;44.534;18.700;2024-01-25T02:02:15;179.20;;;109.50;;
25511;SDS011;13414;44.534;18.700;2024-01-25T02:04:43;166.55;;;99.90;;
25511;SDS011;13414;44.534;18.700;2024-01-25T02:07:12;152.18;;;92.85;;
25511;SDS011;13414;44.534;18.700;2024-01-25T02:09:39;144.70;;;85.60;;
25511;SDS011;13414;44.534;18.700;2024-01-25T02:12:07;139.27;;;84.63;;
25511;SDS011;13414;44.534;18.700;2024-01-25T02:14:34;149.32;;;89.93;;
25511;SDS011;13414;44.534;18.700;2024-01-25T02:17:02;140.85;;;86.60;;
25511;SDS011;13414;44.534;18.700;2024-01-25T02:19:29;156.77;;;92.50;;
25511;SDS011;13414;44.534;18.700;2024-01-25T02:21:57;176.60;;;103.28;;
25511;SDS011;13414;44.534;18.700;2024-01-25T02:24:27;155.85;;;95.35;;
25511;SDS011;13414;44.534;18.700;2024-01-25T02:26:54;166.55;;;100.45;;
25511;SDS011;13414;44.534;18.700;2024-01-25T02:29:22;165.20;;;101.03;;
25511;SDS011;13414;44.534;18.700;2024-01-25T02:31:49;159.73;;;97.80;;
25511;SDS011;13414;44.534;18.700;2024-01-25T02:34:17;182.23;;;103.85;;
25511;SDS011;13414;44.534;18.700;2024-01-25T02:36:44;180.27;;;102.60;;
25511;SDS011;13414;44.534;18.700;2024-01-25T02:39:13;194.07;;;107.43;;
25511;SDS011;13414;44.534;18.700;2024-01-25T02:41:42;179.13;;;99.35;;
25511;SDS011;13414;44.534;18.700;2024-01-25T02:44:10;185.77;;;103.72;;
25511;SDS011;13414;44.534;18.700;2024-01-25T02:46:38;178.68;;;100.97;;
25511;SDS011;13414;44.534;18.700;2024-01-25T02:49:06;190.13;;;105.00;;
25511;SDS011;13414;44.534;18.700;2024-01-25T02:51:33;193.95;;;104.22;;
25511;SDS011;13414;44.534;18.700;2024-01-25T02:54:00;188.43;;;102.97;;
25511;SDS011;13414;44.534;18.700;2024-01-25T02:56:28;174.23;;;93.13;;
25511;SDS011;13414;44.534;18.700;2024-01-25T02:59:01;159.27;;;87.35;;
25511;SDS011;13414;44.534;18.700;2024-01-25T03:01:36;181.95;;;97.65;;
25511;SDS011;13414;44.534;18.700;2024-01-25T03:04:04;165.25;;;89.82;;
25511;SDS011;13414;44.534;18.700;2024-01-25T03:06:32;153.13;;;86.95;;
25511;SDS011;13414;44.534;18.700;2024-01-25T03:08:59;158.68;;;89.70;;
25511;SDS011;13414;44.534;18.700;2024-01-25T03:11:29;159.40;;;90.63;;
25511;SDS011;13414;44.534;18.700;2024-01-25T03:13:57;161.43;;;90.90;;
25511;SDS011;13414;44.534;18.700;2024-01-25T03:16:26;165.02;;;90.97;;
25511;SDS011;13414;44.534;18.700;2024-01-25T03:18:53;173.48;;;96.45;;
25511;SDS011;13414;44.534;18.700;2024-01-25T03:21:21;156.63;;;88.95;;
25511;SDS011;13414;44.534;18.700;2024-01-25T03:23:48;157.02;;;88.35;;
25511;SDS011;13414;44.534;18.700;2024-01-25T03:26:16;163.82;;;90.13;;
25511;SDS011;13414;44.534;18.700;2024-01-25T03:28:43;153.27;;;87.85;;
25511;SDS011;13414;44.534;18.700;2024-01-25T03:31:11;151.45;;;87.38;;
25511;SDS011;13414;44.534;18.700;2024-01-25T03:33:40;152.57;;;85.15;;
25511;SDS011;13414;44.534;18.700;2024-01-25T03:36:07;156.02;;;88.85;;
25511;SDS011;13414;44.534;18.700;2024-01-25T03:38:35;159.98;;;89.15;;
25511;SDS011;13414;44.534;18.700;2024-01-25T03:41:02;152.93;;;86.65;;
25511;SDS011;13414;44.534;18.700;2024-01-25T03:43:30;153.80;;;87.18;;
25511;SDS011;13414;44.534;18.700;2024-01-25T03:45:57;149.70;;;88.18;;
25511;SDS011;13414;44.534;18.700;2024-01-25T03:48:25;161.90;;;87.55;;
25511;SDS011;13414;44.534;18.700;2024-01-25T03:50:54;156.45;;;86.70;;
25511;SDS011;13414;44.534;18.700;2024-01-25T03:53:21;152.95;;;87.07;;
25511;SDS011;13414;44.534;18.700;2024-01-25T03:55:49;152.05;;;87.55;;
25511;SDS011;13414;44.534;18.700;2024-01-25T03:58:16;150.48;;;87.22;;
25511;SDS011;13414;44.534;18.700;2024-01-25T04:00:44;156.90;;;87.95;;
25511;SDS011;13414;44.534;18.700;2024-01-25T04:03:12;152.77;;;89.53;;
25511;SDS011;13414;44.534;18.700;2024-01-25T04:05:40;144.48;;;85.25;;
25511;SDS011;13414;44.534;18.700;2024-01-25T04:08:08;128.48;;;76.85;;
25511;SDS011;13414;44.534;18.700;2024-01-25T04:10:36;143.05;;;89.20;;
25511;SDS011;13414;44.534;18.700;2024-01-25T04:13:04;138.85;;;84.10;;
25511;SDS011;13414;44.534;18.700;2024-01-25T04:15:32;105.93;;;68.18;;
25511;SDS011;13414;44.534;18.700;2024-01-25T04:18:00;128.75;;;77.07;;
25511;SDS011;13414;44.534;18.700;2024-01-25T04:20:27;114.47;;;74.05;;
25511;SDS011;13414;44.534;18.700;2024-01-25T04:22:56;115.50;;;74.25;;
25511;SDS011;13414;44.534;18.700;2024-01-25T04:25:25;114.72;;;72.60;;
25511;SDS011;13414;44.534;18.700;2024-01-25T04:27:52;89.10;;;57.40;;
25511;SDS011;13414;44.534;18.700;2024-01-25T04:30:20;102.20;;;60.53;;
25511;SDS011;13414;44.534;18.700;2024-01-25T04:32:47;104.43;;;64.80;;
25511;SDS011;13414;44.534;18.700;2024-01-25T04:35:15;93.55;;;58.80;;
25511;SDS011;13414;44.534;18.700;2024-01-25T04:37:42;85.10;;;53.47;;
25511;SDS011;13414;44.534;18.700;2024-01-25T04:40:10;80.95;;;49.90;;
25511;SDS011;13414;44.534;18.700;2024-01-25T04:42:39;83.40;;;50.85;;
25511;SDS011;13414;44.534;18.700;2024-01-25T04:45:07;76.88;;;49.10;;
25511;SDS011;13414;44.534;18.700;2024-01-25T04:47:34;82.65;;;49.03;;
25511;SDS011;13414;44.534;18.700;2024-01-25T04:50:04;85.00;;;53.95;;
25511;SDS011;13414;44.534;18.700;2024-01-25T04:52:32;84.82;;;49.45;;
25511;SDS011;13414;44.534;18.700;2024-01-25T04:55:04;76.15;;;47.80;;
25511;SDS011;13414;44.534;18.700;2024-01-25T04:57:32;71.53;;;43.85;;
25511;SDS011;13414;44.534;18.700;2024-01-25T05:00:01;89.88;;;52.50;;
25511;SDS011;13414;44.534;18.700;2024-01-25T05:02:29;93.30;;;57.30;;
25511;SDS011;13414;44.534;18.700;2024-01-25T05:04:56;92.53;;;55.20;;
25511;SDS011;13414;44.534;18.700;2024-01-25T05:07:24;87.18;;;50.17;;
25511;SDS011;13414;44.534;18.700;2024-01-25T05:09:51;89.32;;;51.33;;
25511;SDS011;13414;44.534;18.700;2024-01-25T05:12:19;85.43;;;48.90;;
25511;SDS011;13414;44.534;18.700;2024-01-25T05:14:46;81.75;;;47.25;;
25511;SDS011;13414;44.534;18.700;2024-01-25T05:17:15;94.25;;;52.80;;
25511;SDS011;13414;44.534;18.700;2024-01-25T05:19:42;127.95;;;64.07;;
25511;SDS011;13414;44.534;18.700;2024-01-25T05:22:10;98.53;;;53.83;;
25511;SDS011;13414;44.534;18.700;2024-01-25T05:24:38;85.25;;;47.83;;
25511;SDS011;13414;44.534;18.700;2024-01-25T05:27:05;91.95;;;50.65;;
25511;SDS011;13414;44.534;18.700;2024-01-25T05:29:33;91.07;;;50.80;;
25511;SDS011;13414;44.534;18.700;2024-01-25T05:32:00;87.90;;;48.63;;
25511;SDS011;13414;44.534;18.700;2024-01-25T05:34:29;88.68;;;50.53;;
25511;SDS011;13414;44.534;18.700;2024-01-25T05:36:57;94.63;;;50.58;;
25511;SDS011;13414;44.534;18.700;2024-01-25T05:39:24;98.72;;;52.80;;
25511;SDS011;13414;44.534;18.700;2024-01-25T05:41:52;88.43;;;47.15;;
25511;SDS011;13414;44.534;18.700;2024-01-25T05:44:19;82.22;;;46.13;;
25511;SDS011;13414;44.534;18.700;2024-01-25T05:46:47;87.60;;;46.08;;
25511;SDS011;13414;44.534;18.700;2024-01-25T05:49:14;66.90;;;37.60;;
25511;SDS011;13414;44.534;18.700;2024-01-25T05:51:43;78.60;;;43.83;;
25511;SDS011;13414;44.534;18.700;2024-01-25T05:54:10;78.82;;;44.00;;
25511;SDS011;13414;44.534;18.700;2024-01-25T05:56:38;77.10;;;44.60;;
25511;SDS011;13414;44.534;18.700;2024-01-25T05:59:05;69.72;;;41.10;;
25511;SDS011;13414;44.534;18.700;2024-01-25T06:01:33;85.55;;;48.03;;
25511;SDS011;13414;44.534;18.700;2024-01-25T06:04:00;85.57;;;48.22;;
25511;SDS011;13414;44.534;18.700;2024-01-25T06:06:28;89.43;;;47.17;;
25511;SDS011;13414;44.534;18.700;2024-01-25T06:08:57;88.20;;;48.63;;
25511;SDS011;13414;44.534;18.700;2024-01-25T06:11:24;98.40;;;53.38;;
25511;SDS011;13414;44.534;18.700;2024-01-25T06:13:52;136.48;;;65.30;;
25511;SDS011;13414;44.534;18.700;2024-01-25T06:16:19;122.68;;;61.50;;
25511;SDS011;13414;44.534;18.700;2024-01-25T06:18:47;112.30;;;55.97;;
25511;SDS011;13414;44.534;18.700;2024-01-25T06:21:14;98.60;;;51.30;;
25511;SDS011;13414;44.534;18.700;2024-01-25T06:23:42;97.57;;;51.58;;
25511;SDS011;13414;44.534;18.700;2024-01-25T06:26:11;93.57;;;53.85;;
25511;SDS011;13414;44.534;18.700;2024-01-25T06:28:38;90.68;;;51.10;;
25511;SDS011;13414;44.534;18.700;2024-01-25T06:31:06;84.60;;;50.33;;
25511;SDS011;13414;44.534;18.700;2024-01-25T06:33:34;92.72;;;51.85;;
25511;SDS011;13414;44.534;18.700;2024-01-25T06:36:01;94.90;;;52.17;;
25511;SDS011;13414;44.534;18.700;2024-01-25T06:38:29;106.10;;;59.17;;
25511;SDS011;13414;44.534;18.700;2024-01-25T06:40:56;101.00;;;55.65;;
25511;SDS011;13414;44.534;18.700;2024-01-25T06:43:25;95.47;;;51.63;;
25511;SDS011;13414;44.534;18.700;2024-01-25T06:45:53;109.60;;;59.40;;
25511;SDS011;13414;44.534;18.700;2024-01-25T06:48:20;104.03;;;57.00;;
25511;SDS011;13414;44.534;18.700;2024-01-25T06:50:48;100.20;;;57.08;;
25511;SDS011;13414;44.534;18.700;2024-01-25T06:53:16;121.57;;;66.50;;
25511;SDS011;13414;44.534;18.700;2024-01-25T06:55:44;115.43;;;65.13;;
25511;SDS011;13414;44.534;18.700;2024-01-25T06:59:38;137.35;;;75.35;;
25511;SDS011;13414;44.534;18.700;2024-01-25T07:02:06;124.70;;;74.32;;
25511;SDS011;13414;44.534;18.700;2024-01-25T07:04:33;121.18;;;75.90;;
25511;SDS011;13414;44.534;18.700;2024-01-25T07:07:03;123.78;;;73.93;;
25511;SDS011;13414;44.534;18.700;2024-01-25T07:09:31;125.47;;;76.65;;
25511;SDS011;13414;44.534;18.700;2024-01-25T07:11:58;123.32;;;74.05;;
25511;SDS011;13414;44.534;18.700;2024-01-25T07:14:26;114.13;;;69.38;;
25511;SDS011;13414;44.534;18.700;2024-01-25T07:16:55;113.30;;;67.93;;
25511;SDS011;13414;44.534;18.700;2024-01-25T07:19:22;118.28;;;74.93;;
25511;SDS011;13414;44.534;18.700;2024-01-25T07:21:50;152.75;;;93.03;;
25511;SDS011;13414;44.534;18.700;2024-01-25T07:24:18;119.00;;;73.35;;
25511;SDS011;13414;44.534;18.700;2024-01-25T07:26:45;135.48;;;79.15;;
25511;SDS011;13414;44.534;18.700;2024-01-25T07:29:12;159.20;;;94.35;;
25511;SDS011;13414;44.534;18.700;2024-01-25T07:31:40;161.27;;;94.20;;
25511;SDS011;13414;44.534;18.700;2024-01-25T07:34:09;161.93;;;98.18;;
25511;SDS011;13414;44.534;18.700;2024-01-25T07:36:36;158.98;;;96.03;;
25511;SDS011;13414;44.534;18.700;2024-01-25T07:39:04;156.73;;;94.03;;
25511;SDS011;13414;44.534;18.700;2024-01-25T07:41:32;147.55;;;86.97;;
25511;SDS011;13414;44.534;18.700;2024-01-25T07:43:59;133.20;;;76.68;;
25511;SDS011;13414;44.534;18.700;2024-01-25T07:46:27;115.88;;;69.57;;
25511;SDS011;13414;44.534;18.700;2024-01-25T07:48:54;129.50;;;75.53;;
25511;SDS011;13414;44.534;18.700;2024-01-25T07:51:24;122.88;;;72.97;;
25511;SDS011;13414;44.534;18.700;2024-01-25T07:53:54;106.40;;;66.38;;
25511;SDS011;13414;44.534;18.700;2024-01-25T07:56:21;111.60;;;67.47;;
25511;SDS011;13414;44.534;18.700;2024-01-25T07:58:49;110.00;;;67.43;;
25511;SDS011;13414;44.534;18.700;2024-01-25T08:01:17;103.05;;;63.53;;
25511;SDS011;13414;44.534;18.700;2024-01-25T08:03:45;103.13;;;63.88;;
25511;SDS011;13414;44.534;18.700;2024-01-25T08:06:12;107.90;;;64.88;;
25511;SDS011;13414;44.534;18.700;2024-01-25T08:08:42;115.97;;;71.55;;
25511;SDS011;13414;44.534;18.700;2024-01-25T08:11:09;119.93;;;72.60;;
25511;SDS011;13414;44.534;18.700;2024-01-25T08:13:37;117.03;;;70.20;;
25511;SDS011;13414;44.534;18.700;2024-01-25T08:16:08;118.55;;;71.90;;
25511;SDS011;13414;44.534;18.700;2024-01-25T08:18:37;117.72;;;71.32;;
25511;SDS011;13414;44.534;18.700;2024-01-25T08:21:05;116.88;;;70.28;;
25511;SDS011;13414;44.534;18.700;2024-01-25T08:23:32;113.43;;;70.40;;
25511;SDS011;13414;44.534;18.700;2024-01-25T08:26:01;115.85;;;70.13;;
25511;SDS011;13414;44.534;18.700;2024-01-25T08:28:29;114.22;;;67.82;;
25511;SDS011;13414;44.534;18.700;2024-01-25T08:30:57;112.68;;;68.45;;
25511;SDS011;13414;44.534;18.700;2024-01-25T08:33:24;118.78;;;71.63;;
25511;SDS011;13414;44.534;18.700;2024-01-25T08:35:52;128.82;;;77.18;;
25511;SDS011;13414;44.534;18.700;2024-01-25T08:38:19;130.95;;;77.53;;
25511;SDS011;13414;44.534;18.700;2024-01-25T08:40:47;125.80;;;76.18;;
25511;SDS011;13414;44.534;18.700;2024-01-25T08:43:15;132.38;;;78.38;;
25511;SDS011;13414;44.534;18.700;2024-01-25T08:45:43;124.28;;;76.95;;
25511;SDS011;13414;44.534;18.700;2024-01-25T08:48:11;127.03;;;77.55;;
25511;SDS011;13414;44.534;18.700;2024-01-25T08:50:39;124.30;;;75.65;;
25511;SDS011;13414;44.534;18.700;2024-01-25T08:53:06;120.25;;;75.22;;
25511;SDS011;13414;44.534;18.700;2024-01-25T08:55:34;112.82;;;70.30;;
25511;SDS011;13414;44.534;18.700;2024-01-25T08:58:02;105.80;;;66.72;;
25511;SDS011;13414;44.534;18.700;2024-01-25T09:00:31;115.95;;;70.70;;
25511;SDS011;13414;44.534;18.700;2024-01-25T09:02:58;112.40;;;67.50;;
25511;SDS011;13414;44.534;18.700;2024-01-25T09:05:26;108.15;;;67.53;;
25511;SDS011;13414;44.534;18.700;2024-01-25T09:07:54;101.60;;;67.80;;
25511;SDS011;13414;44.534;18.700;2024-01-25T09:10:21;100.95;;;64.47;;
25511;SDS011;13414;44.534;18.700;2024-01-25T09:12:49;105.43;;;65.43;;
25511;SDS011;13414;44.534;18.700;2024-01-25T09:15:16;110.13;;;70.65;;
25511;SDS011;13414;44.534;18.700;2024-01-25T09:17:45;114.93;;;73.18;;
25511;SDS011;13414;44.534;18.700;2024-01-25T09:20:13;108.32;;;70.30;;
25511;SDS011;13414;44.534;18.700;2024-01-25T09:22:41;103.65;;;63.70;;
25511;SDS011;13414;44.534;18.700;2024-01-25T09:25:09;84.00;;;54.40;;
25511;SDS011;13414;44.534;18.700;2024-01-25T09:27:36;75.90;;;48.42;;
25511;SDS011;13414;44.534;18.700;2024-01-25T09:30:04;70.70;;;46.90;;
25511;SDS011;13414;44.534;18.700;2024-01-25T09:32:33;76.70;;;47.97;;
25511;SDS011;13414;44.534;18.700;2024-01-25T09:35:02;77.20;;;46.72;;
25511;SDS011;13414;44.534;18.700;2024-01-25T09:37:29;78.75;;;48.08;;
25511;SDS011;13414;44.534;18.700;2024-01-25T09:39:57;81.70;;;50.63;;
25511;SDS011;13414;44.534;18.700;2024-01-25T09:42:25;80.78;;;51.03;;
25511;SDS011;13414;44.534;18.700;2024-01-25T09:44:52;78.90;;;49.15;;
25511;SDS011;13414;44.534;18.700;2024-01-25T09:47:21;74.25;;;47.55;;
25511;SDS011;13414;44.534;18.700;2024-01-25T09:49:49;65.68;;;41.60;;
25511;SDS011;13414;44.534;18.700;2024-01-25T09:52:19;61.00;;;37.17;;
25511;SDS011;13414;44.534;18.700;2024-01-25T09:54:51;57.53;;;35.53;;
25511;SDS011;13414;44.534;18.700;2024-01-25T09:57:22;57.28;;;35.65;;
25511;SDS011;13414;44.534;18.700;2024-01-25T09:59:56;55.45;;;35.67;;
25511;SDS011;13414;44.534;18.700;2024-01-25T10:02:24;57.25;;;34.33;;
25511;SDS011;13414;44.534;18.700;2024-01-25T10:04:52;53.38;;;34.92;;
25511;SDS011;13414;44.534;18.700;2024-01-25T10:07:37;56.28;;;34.42;;
25511;SDS011;13414;44.534;18.700;2024-01-25T10:10:05;55.53;;;35.30;;
25511;SDS011;13414;44.534;18.700;2024-01-25T10:12:34;50.25;;;32.10;;
25511;SDS011;13414;44.534;18.700;2024-01-25T10:15:02;50.92;;;32.40;;
25511;SDS011;13414;44.534;18.700;2024-01-25T10:17:31;51.50;;;32.65;;
25511;SDS011;13414;44.534;18.700;2024-01-25T10:19:58;49.88;;;31.77;;
25511;SDS011;13414;44.534;18.700;2024-01-25T10:22:26;47.67;;;30.83;;
25511;SDS011;13414;44.534;18.700;2024-01-25T10:24:55;47.78;;;29.90;;
25511;SDS011;13414;44.534;18.700;2024-01-25T10:27:22;48.45;;;30.05;;
25511;SDS011;13414;44.534;18.700;2024-01-25T10:29:50;42.15;;;27.85;;
25511;SDS011;13414;44.534;18.700;2024-01-25T10:32:18;47.45;;;28.63;;
25511;SDS011;13414;44.534;18.700;2024-01-25T10:34:46;59.67;;;36.35;;
25511;SDS011;13414;44.534;18.700;2024-01-25T10:37:18;52.55;;;31.65;;
25511;SDS011;13414;44.534;18.700;2024-01-25T10:39:47;41.58;;;25.00;;
25511;SDS011;13414;44.534;18.700;2024-01-25T10:42:16;36.83;;;22.70;;
25511;SDS011;13414;44.534;18.700;2024-01-25T10:44:44;31.65;;;18.63;;
25511;SDS011;13414;44.534;18.700;2024-01-25T10:47:12;28.85;;;17.50;;
25511;SDS011;13414;44.534;18.700;2024-01-25T10:49:39;29.50;;;17.08;;
25511;SDS011;13414;44.534;18.700;2024-01-25T10:52:08;24.92;;;14.57;;
25511;SDS011;13414;44.534;18.700;2024-01-25T10:54:36;22.90;;;15.00;;
25511;SDS011;13414;44.534;18.700;2024-01-25T10:57:04;24.67;;;15.80;;
25511;SDS011;13414;44.534;18.700;2024-01-25T10:59:34;23.88;;;14.85;;
25511;SDS011;13414;44.534;18.700;2024-01-25T11:02:01;25.98;;;16.20;;
25511;SDS011;13414;44.534;18.700;2024-01-25T11:04:30;26.42;;;16.05;;
25511;SDS011;13414;44.534;18.700;2024-01-25T11:07:04;24.80;;;17.00;;
25511;SDS011;13414;44.534;18.700;2024-01-25T11:09:33;33.05;;;20.20;;
25511;SDS011;13414;44.534;18.700;2024-01-25T11:12:08;26.55;;;17.50;;
25511;SDS011;13414;44.534;18.700;2024-01-25T11:14:39;28.00;;;15.80;;
25511;SDS011;13414;44.534;18.700;2024-01-25T11:17:18;29.38;;;15.40;;
25511;SDS011;13414;44.534;18.700;2024-01-25T11:19:47;25.48;;;13.45;;
25511;SDS011;13414;44.534;18.700;2024-01-25T11:22:15;28.20;;;14.90;;
25511;SDS011;13414;44.534;18.700;2024-01-25T11:24:43;24.27;;;13.85;;
25511;SDS011;13414;44.534;18.700;2024-01-25T11:27:11;24.77;;;14.07;;
25511;SDS011;13414;44.534;18.700;2024-01-25T11:29:40;22.33;;;13.32;;
25511;SDS011;13414;44.534;18.700;2024-01-25T11:32:08;26.15;;;13.93;;
25511;SDS011;13414;44.534;18.700;2024-01-25T11:34:36;29.27;;;16.63;;
25511;SDS011;13414;44.534;18.700;2024-01-25T11:37:04;26.08;;;16.25;;
25511;SDS011;13414;44.534;18.700;2024-01-25T11:39:31;35.33;;;21.77;;
25511;SDS011;13414;44.534;18.700;2024-01-25T11:41:59;23.25;;;13.77;;
25511;SDS011;13414;44.534;18.700;2024-01-25T11:44:26;21.52;;;13.10;;
25511;SDS011;13414;44.534;18.700;2024-01-25T11:46:56;21.88;;;13.38;;
25511;SDS011;13414;44.534;18.700;2024-01-25T11:49:23;19.23;;;12.35;;
25511;SDS011;13414;44.534;18.700;2024-01-25T11:51:51;22.65;;;14.30;;
25511;SDS011;13414;44.534;18.700;2024-01-25T11:54:19;22.92;;;13.75;;
25511;SDS011;13414;44.534;18.700;2024-01-25T11:56:46;22.02;;;13.50;;
25511;SDS011;13414;44.534;18.700;2024-01-25T14:00:47;4.75;;;2.42;;
25511;SDS011;13414;44.534;18.700;2024-01-25T14:03:15;7.25;;;2.65;;
25511;SDS011;13414;44.534;18.700;2024-01-25T14:05:44;5.28;;;2.15;;
25511;SDS011;13414;44.534;18.700;2024-01-25T14:08:14;5.75;;;2.63;;
25511;SDS011;13414;44.534;18.700;2024-01-25T14:10:57;5.60;;;2.88;;
25511;SDS011;13414;44.534;18.700;2024-01-25T14:13:25;10.45;;;3.70;;
25511;SDS011;13414;44.534;18.700;2024-01-25T14:15:54;10.50;;;3.78;;
25511;SDS011;13414;44.534;18.700;2024-01-25T14:18:24;7.97;;;3.17;;
25511;SDS011;13414;44.534;18.700;2024-01-25T14:20:53;7.10;;;3.78;;
25511;SDS011;13414;44.534;18.700;2024-01-25T14:23:30;7.47;;;3.78;;
25511;SDS011;13414;44.534;18.700;2024-01-25T14:26:08;11.27;;;3.95;;
25511;SDS011;13414;44.534;18.700;2024-01-25T14:28:35;9.43;;;4.35;;
25511;SDS011;13414;44.534;18.700;2024-01-25T14:31:04;7.05;;;3.17;;
25511;SDS011;13414;44.534;18.700;2024-01-25T14:33:32;8.20;;;4.13;;
25511;SDS011;13414;44.534;18.700;2024-01-25T14:35:59;9.10;;;4.43;;
25511;SDS011;13414;44.534;18.700;2024-01-25T14:38:29;9.77;;;3.83;;
25511;SDS011;13414;44.534;18.700;2024-01-25T14:41:00;10.07;;;3.90;;
25511;SDS011;13414;44.534;18.700;2024-01-25T14:43:27;11.52;;;4.22;;
25511;SDS011;13414;44.534;18.700;2024-01-25T14:45:55;11.52;;;4.78;;
25511;SDS011;13414;44.534;18.700;2024-01-25T14:48:24;10.40;;;4.32;;
25511;SDS011;13414;44.534;18.700;2024-01-25T14:50:51;12.35;;;5.78;;
25511;SDS011;13414;44.534;18.700;2024-01-25T14:53:20;8.27;;;3.80;;
25511;SDS011;13414;44.534;18.700;2024-01-25T14:55:48;11.15;;;4.20;;
25511;SDS011;13414;44.534;18.700;2024-01-25T15:03:28;6.78;;;3.50;;
25511;SDS011;13414;44.534;18.700;2024-01-25T15:05:56;9.27;;;4.75;;
25511;SDS011;13414;44.534;18.700;2024-01-25T15:08:23;12.48;;;3.58;;
25511;SDS011;13414;44.534;18.700;2024-01-25T15:10:51;11.32;;;3.75;;
25511;SDS011;13414;44.534;18.700;2024-01-25T15:13:23;15.85;;;3.88;;
25511;SDS011;13414;44.534;18.700;2024-01-25T15:15:51;7.97;;;4.30;;
25511;SDS011;13414;44.534;18.700;2024-01-25T15:18:19;9.02;;;3.75;;
25511;SDS011;13414;44.534;18.700;2024-01-25T15:20:49;9.52;;;3.95;;
25511;SDS011;13414;44.534;18.700;2024-01-25T15:23:19;9.88;;;4.60;;
25511;SDS011;13414;44.534;18.700;2024-01-25T15:25:47;7.60;;;4.10;;
25511;SDS011;13414;44.534;18.700;2024-01-25T15:28:15;10.38;;;3.97;;
25511;SDS011;13414;44.534;18.700;2024-01-25T15:30:43;18.23;;;7.93;;
25511;SDS011;13414;44.534;18.700;2024-01-25T15:33:11;15.75;;;6.65;;
25511;SDS011;13414;44.534;18.700;2024-01-25T15:35:39;12.15;;;5.85;;
25511;SDS011;13414;44.534;18.700;2024-01-25T15:38:07;18.75;;;6.40;;
25511;SDS011;13414;44.534;18.700;2024-01-25T15:40:35;15.25;;;6.15;;
25511;SDS011;13414;44.534;18.700;2024-01-25T15:43:03;11.93;;;5.68;;
25511;SDS011;13414;44.534;18.700;2024-01-25T15:45:30;16.83;;;5.47;;
25511;SDS011;13414;44.534;18.700;2024-01-25T15:47:58;13.20;;;6.30;;
25511;SDS011;13414;44.534;18.700;2024-01-25T15:50:25;11.95;;;5.72;;
25511;SDS011;13414;44.534;18.700;2024-01-25T15:52:53;11.15;;;5.90;;
25511;SDS011;13414;44.534;18.700;2024-01-25T15:55:22;12.57;;;6.57;;
25511;SDS011;13414;44.534;18.700;2024-01-25T15:57:50;24.60;;;8.40;;
25511;SDS011;13414;44.534;18.700;2024-01-25T16:00:17;31.15;;;15.27;;
25511;SDS011;13414;44.534;18.700;2024-01-25T16:02:45;44.83;;;18.48;;
25511;SDS011;13414;44.534;18.700;2024-01-25T16:05:13;50.45;;;25.45;;
25511;SDS011;13414;44.534;18.700;2024-01-25T16:07:41;57.25;;;27.67;;
25511;SDS011;13414;44.534;18.700;2024-01-25T16:10:08;60.50;;;32.47;;
25511;SDS011;13414;44.534;18.700;2024-01-25T16:12:38;80.18;;;29.15;;
25511;SDS011;13414;44.534;18.700;2024-01-25T16:15:05;73.10;;;28.45;;
25511;SDS011;13414;44.534;18.700;2024-01-25T16:17:34;100.30;;;48.90;;